Alma, Wisconsin
Current Conditions -  °F | °C
As of 8:35 PM on Wednesday 22 Oct 2014 (Local Time) from KONA Reporting Station
Broken Clouds Broken Clouds  
Wind Chill: 54°   Ceiling: 7000
Heat Index: 54°   Visibility: 10mi
Dew Point: 37°   Wind: 7mph
Humidity: 54%   Direction: 140°SE
Pressure: 30.15"   Gusts: NA
Location:  44.32°N, 91.91°W
Report Text: KONA 230135Z AUTO 14006KT 10SM BKN070 BKN095 12/03 A3015 RMK AO2
Loading
Personal Weather Stations






























Interactive Weather Map
Tropical Storm Tracking
New forecast layout! Learn more

10-Day Weather Forecast

Advertisements
Track Severe Weather on mobile